Narberth, United Kingdom
Current Conditions -  °F | °C
As of 8:50 PM on Thursday 23 Oct 2014 (Local Time) from EGOP Reporting Station
Broken Clouds Broken Clouds  
Wind Chill: 59°   Ceiling: 2100
Heat Index: 59°   Visibility: 4mi
Dew Point: 57°   Wind: 21mph
Humidity: 94%   Direction: 240°WSW
Pressure: 29.97"   Gusts: NA
Location:  51.8°N, 4.74°W
Report Text: EGOP 231950Z AUTO 24018KT 7000 // FEW011/// BKN021/// 15/14 Q1015
Loading
Personal Weather Stations






























Interactive Weather Map New forecast layout! Learn more

10-Day Weather Forecast

Advertisements
Track Severe Weather on mobile